Time,TemperatureF,DewpointF,PressureIn,WindDirection,WindDirectionDegrees,WindSpeedMPH,WindSpeedGustMPH,Humidity,HourlyPrecipIn,Conditions,Clouds,dailyrainin,SoftwareType,DateUTC
2013-05-07 00:01:00,64.4,62.6,30.02,WNW,284,0.0,0.0,94,0.00,CLR,,0.00,WeatherDisplay:10.37,2013-05-07 04:01:00,
2013-05-07 00:02:00,64.3,62.5,30.02,WNW,284,0.0,0.0,94,0.00,CLR,,0.00,WeatherDisplay:10.37,2013-05-07 04:02:00,
2013-05-07 00:08:00,64.2,62.7,30.02,WNW,284,0.0,0.0,95,0.00,CLR,,0.00,WeatherDisplay:10.37,2013-05-07 04:08:00,
2013-05-07 00:13:00,64.1,62.6,30.02,WNW,284,0.0,0.0,95,0.00,CLR,,0.00,WeatherDisplay:10.37,2013-05-07 04:13:00,
2013-05-07 00:18:00,64.1,62.6,30.02,WNW,284,0.0,0.0,95,0.00,CLR,,0.00,WeatherDisplay:10.37,2013-05-07 04:18:00,
2013-05-07 00:23:00,64.1,62.6,30.02,WNW,284,0.0,0.0,95,0.00,CLR,,0.00,WeatherDisplay:10.37,2013-05-07 04:23:00,
2013-05-07 00:28:00,64.1,62.6,30.02,WNW,284,0.0,0.0,95,0.00,CLR,,0.00,WeatherDisplay:10.37,2013-05-07 04:28:00,
2013-05-07 00:33:00,63.9,62.4,30.02,WNW,284,0.0,0.0,95,0.00,CLR,,0.00,WeatherDisplay:10.37,2013-05-07 04:33:00,
2013-05-07 00:38:00,63.8,62.3,30.02,WNW,284,0.0,0.0,95,0.00,CLR,,0.00,WeatherDisplay:10.37,2013-05-07 04:38:00,
2013-05-07 00:44:00,63.9,62.4,30.02,WNW,284,0.0,0.0,95,0.00,CLR,,0.00,WeatherDisplay:10.37,2013-05-07 04:44:00,
2013-05-07 00:49:00,63.7,61.9,30.02,WNW,284,0.0,0.0,94,0.00,CLR,,0.00,WeatherDisplay:10.37,2013-05-07 04:49:00,
2013-05-07 00:54:00,63.7,62.2,30.01,WNW,284,0.0,0.0,95,0.00,CLR,,0.00,WeatherDisplay:10.37,2013-05-07 04:54:00,
2013-05-07 00:59:00,63.8,62.3,30.01,WNW,284,0.0,0.0,95,0.00,CLR,,0.00,WeatherDisplay:10.37,2013-05-07 04:59:00,
2013-05-07 01:04:00,63.7,62.2,30.01,WNW,284,0.0,0.0,95,0.00,CLR,,0.00,WeatherDisplay:10.37,2013-05-07 05:04:00,
2013-05-07 01:09:00,63.6,62.1,30.01,WNW,284,0.0,0.0,95,0.00,CLR,,0.00,WeatherDisplay:10.37,2013-05-07 05:09:00,
2013-05-07 01:14:00,63.5,62.0,30.01,WNW,284,0.0,0.0,95,0.00,CLR,,0.00,WeatherDisplay:10.37,2013-05-07 05:14:00,
2013-05-07 01:19:00,63.4,61.9,30.01,WNW,284,0.0,0.0,95,0.00,CLR,,0.00,WeatherDisplay:10.37,2013-05-07 05:19:00,
2013-05-07 01:24:00,63.5,62.0,30.01,WNW,283,0.0,0.0,95,0.00,CLR,,0.00,WeatherDisplay:10.37,2013-05-07 05:24:00,
2013-05-07 01:29:00,63.4,61.9,30.01,WNW,284,0.0,0.0,95,0.00,CLR,,0.00,WeatherDisplay:10.37,2013-05-07 05:29:00,
2013-05-07 01:34:00,63.4,61.9,30.01,WNW,284,0.0,0.0,95,0.00,CLR,,0.00,WeatherDisplay:10.37,2013-05-07 05:34:00,
2013-05-07 01:39:00,63.5,62.0,30.01,WNW,284,0.0,0.0,95,0.00,CLR,,0.00,WeatherDisplay:10.37,2013-05-07 05:39:00,
2013-05-07 01:45:00,63.3,61.8,30.00,WNW,284,0.0,0.0,95,0.00,CLR,,0.00,WeatherDisplay:10.37,2013-05-07 05:45:00,
2013-05-07 01:50:00,63.3,61.8,30.00,WNW,284,0.0,0.0,95,0.00,CLR,,0.00,WeatherDisplay:10.37,2013-05-07 05:50:00,
2013-05-07 01:55:00,63.2,61.7,30.00,WNW,284,0.0,0.0,95,0.00,CLR,,0.00,WeatherDisplay:10.37,2013-05-07 05:55:00,
2013-05-07 02:00:00,62.9,61.4,30.00,WNW,284,0.0,0.0,95,0.00,CLR,,0.00,WeatherDisplay:10.37,2013-05-07 06:00:00,
2013-05-07 02:05:00,62.7,61.2,30.00,WNW,284,0.0,0.0,95,0.00,CLR,,0.00,WeatherDisplay:10.37,2013-05-07 06:05:00,
2013-05-07 02:10:00,62.7,61.2,30.00,WNW,284,0.0,0.0,95,0.00,CLR,,0.00,WeatherDisplay:10.37,2013-05-07 06:10:00,
2013-05-07 02:15:00,62.7,61.5,30.00,WNW,284,0.0,0.0,96,0.00,CLR,,0.00,WeatherDisplay:10.37,2013-05-07 06:15:00,
2013-05-07 02:20:00,62.8,61.6,29.99,WNW,284,0.0,0.0,96,0.00,CLR,,0.00,WeatherDisplay:10.37,2013-05-07 06:20:00,
2013-05-07 02:25:00,62.9,61.7,29.99,WNW,284,0.0,0.0,96,0.00,CLR,,0.00,WeatherDisplay:10.37,2013-05-07 06:25:00,
2013-05-07 02:30:00,62.9,61.7,29.99,WNW,284,0.0,0.0,96,0.00,CLR,,0.00,WeatherDisplay:10.37,2013-05-07 06:30:00,
2013-05-07 02:35:00,62.9,61.7,29.99,WNW,284,0.0,0.0,96,0.00,CLR,,0.00,WeatherDisplay:10.37,2013-05-07 06:35:00,
2013-05-07 02:41:00,63.0,61.8,29.99,WNW,284,0.0,0.0,96,0.00,CLR,,0.00,WeatherDisplay:10.37,2013-05-07 06:41:00,
2013-05-07 02:46:00,63.0,61.8,29.99,WNW,284,0.0,0.0,96,0.00,CLR,,0.00,WeatherDisplay:10.37,2013-05-07 06:46:00,
2013-05-07 02:51:00,62.8,61.3,29.99,WNW,284,0.0,0.0,95,0.00,CLR,,0.00,WeatherDisplay:10.37,2013-05-07 06:51:00,
2013-05-07 02:56:00,62.7,61.2,29.99,WNW,284,0.0,0.0,95,0.00,CLR,,0.00,WeatherDisplay:10.37,2013-05-07 06:56:00,
2013-05-07 03:01:00,62.4,60.9,29.99,WNW,284,0.0,0.0,95,0.00,CLR,,0.00,WeatherDisplay:10.37,2013-05-07 07:01:00,
2013-05-07 03:06:00,62.2,60.8,29.99,WNW,284,0.0,0.0,95,0.00,CLR,,0.00,WeatherDisplay:10.37,2013-05-07 07:06:00,
2013-05-07 03:12:00,61.9,60.5,29.99,WNW,284,0.0,0.0,95,0.00,CLR,,0.00,WeatherDisplay:10.37,2013-05-07 07:12:00,
2013-05-07 03:17:00,61.8,60.4,29.99,WNW,284,0.0,0.0,95,0.00,CLR,,0.00,WeatherDisplay:10.37,2013-05-07 07:17:00,
2013-05-07 03:22:00,61.5,60.1,29.99,WNW,284,0.0,0.0,95,0.00,CLR,,0.00,WeatherDisplay:10.37,2013-05-07 07:22:00,
2013-05-07 03:27:00,61.7,60.5,29.99,WNW,284,0.0,0.0,96,0.00,CLR,,0.00,WeatherDisplay:10.37,2013-05-07 07:27:00,
2013-05-07 03:32:00,61.6,60.4,29.99,WNW,284,0.0,0.0,96,0.00,CLR,,0.00,WeatherDisplay:10.37,2013-05-07 07:32:00,
2013-05-07 03:37:00,61.7,60.5,29.99,WNW,284,0.0,0.0,96,0.00,CLR,,0.00,WeatherDisplay:10.37,2013-05-07 07:37:00,
2013-05-07 03:42:00,61.8,60.6,29.99,WNW,284,0.0,0.0,96,0.00,CLR,,0.00,WeatherDisplay:10.37,2013-05-07 07:42:00,
2013-05-07 03:48:00,61.8,60.6,29.99,WNW,284,0.0,0.0,96,0.00,CLR,,0.00,WeatherDisplay:10.37,2013-05-07 07:48:00,
2013-05-07 03:53:00,61.8,60.6,29.99,WNW,284,0.0,0.0,96,0.00,CLR,,0.00,WeatherDisplay:10.37,2013-05-07 07:53:00,
2013-05-07 03:58:00,61.8,60.6,29.99,WNW,284,0.0,0.0,96,0.00,CLR,,0.00,WeatherDisplay:10.37,2013-05-07 07:58:00,
2013-05-07 04:03:00,62.0,60.8,29.99,WNW,284,0.0,0.0,96,0.00,CLR,,0.00,WeatherDisplay:10.37,2013-05-07 08:03:00,
2013-05-07 04:08:00,62.1,60.9,29.99,WNW,284,0.0,0.0,96,0.00,CLR,,0.00,WeatherDisplay:10.37,2013-05-07 08:08:00,
2013-05-07 04:13:00,62.6,61.4,29.99,WNW,284,0.0,0.0,96,0.00,CLR,,0.00,WeatherDisplay:10.37,2013-05-07 08:13:00,
2013-05-07 04:18:00,62.8,61.6,29.99,NNW,328,1.2,1.2,96,0.00,CLR,,0.00,WeatherDisplay:10.37,2013-05-07 08:18:00,
2013-05-07 04:23:00,63.2,62.0,29.99,NNW,338,3.5,3.5,96,0.00,CLR,,0.00,WeatherDisplay:10.37,2013-05-07 08:23:00,
2013-05-07 04:28:00,63.2,61.7,30.00,NNW,347,3.5,3.5,95,0.00,CLR,,0.00,WeatherDisplay:10.37,2013-05-07 08:28:00,
2013-05-07 04:33:00,63.1,61.3,30.00,North,350,2.3,2.3,94,0.00,CLR,,0.00,WeatherDisplay:10.37,2013-05-07 08:33:00,
2013-05-07 04:38:00,63.1,61.0,30.00,North,11,3.5,3.5,93,0.00,CLR,,0.00,WeatherDisplay:10.37,2013-05-07 08:38:00,
2013-05-07 04:44:00,63.0,60.9,30.00,NNE,22,3.0,3.0,93,0.00,CLR,,0.00,WeatherDisplay:10.37,2013-05-07 08:44:00,
2013-05-07 04:49:00,62.8,60.4,30.00,NNE,25,3.5,3.5,92,0.00,CLR,,0.00,WeatherDisplay:10.37,2013-05-07 08:49:00,
2013-05-07 04:54:00,62.6,59.9,30.00,NNE,19,5.8,5.8,91,0.00,CLR,,0.00,WeatherDisplay:10.37,2013-05-07 08:54:00,
2013-05-07 04:59:00,62.5,59.5,30.00,NNW,342,3.5,3.5,90,0.00,CLR,,0.00,WeatherDisplay:10.37,2013-05-07 08:59:00,
2013-05-07 05:05:00,62.3,59.3,30.00,North,352,2.3,2.3,90,0.00,CLR,,0.00,WeatherDisplay:10.37,2013-05-07 09:05:00,
2013-05-07 05:10:00,62.1,59.1,30.00,NNW,340,3.5,3.5,90,0.00,CLR,,0.00,WeatherDisplay:10.37,2013-05-07 09:10:00,
2013-05-07 05:15:00,62.0,59.0,30.00,NNW,340,3.5,3.5,90,0.00,CLR,,0.00,WeatherDisplay:10.37,2013-05-07 09:15:00,
2013-05-07 05:20:00,61.9,58.9,30.00,NNW,335,3.5,3.5,90,0.00,CLR,,0.00,WeatherDisplay:10.37,2013-05-07 09:20:00,
2013-05-07 05:25:00,61.8,58.8,30.00,NNW,342,3.5,3.5,90,0.00,CLR,,0.00,WeatherDisplay:10.37,2013-05-07 09:25:00,
2013-05-07 05:30:00,61.7,58.7,30.01,NNW,342,4.6,4.6,90,0.00,CLR,,0.00,WeatherDisplay:10.37,2013-05-07 09:30:00,
2013-05-07 05:36:00,61.6,58.9,30.01,NNE,15,1.2,1.2,91,0.00,CLR,,0.00,WeatherDisplay:10.37,2013-05-07 09:36:00,
2013-05-07 05:41:00,61.4,58.7,30.01,NNE,15,0.0,0.0,91,0.00,CLR,,0.00,WeatherDisplay:10.37,2013-05-07 09:41:00,
2013-05-07 05:46:00,61.2,58.6,30.01,NNE,29,2.3,2.3,91,0.00,CLR,,0.00,WeatherDisplay:10.37,2013-05-07 09:46:00,
2013-05-07 05:51:00,61.2,58.6,30.01,North,352,1.2,1.2,91,0.00,CLR,,0.00,WeatherDisplay:10.37,2013-05-07 09:51:00,
2013-05-07 05:56:00,61.0,58.7,30.01,NW,319,2.0,2.0,92,0.00,CLR,,0.00,WeatherDisplay:10.37,2013-05-07 09:56:00,
2013-05-07 06:01:00,60.8,58.5,30.01,NW,322,0.0,0.0,92,0.00,CLR,,0.00,WeatherDisplay:10.37,2013-05-07 10:01:00,
2013-05-07 06:06:00,60.7,58.4,30.01,North,7,0.0,0.0,92,0.00,CLR,,0.00,WeatherDisplay:10.37,2013-05-07 10:06:00,
2013-05-07 06:11:00,60.8,58.8,30.01,North,352,2.3,2.3,93,0.00,CLR,,0.00,WeatherDisplay:10.37,2013-05-07 10:11:00,
2013-05-07 06:16:00,60.7,58.7,30.02,North,352,0.0,0.0,93,0.00,CLR,,0.00,WeatherDisplay:10.37,2013-05-07 10:16:00,
2013-05-07 06:21:00,60.6,58.6,30.02,North,352,0.0,0.0,93,0.00,CLR,,0.00,WeatherDisplay:10.37,2013-05-07 10:21:00,
2013-05-07 06:26:00,60.6,58.6,30.02,NNE,25,0.0,0.0,93,0.00,CLR,,0.00,WeatherDisplay:10.37,2013-05-07 10:26:00,
2013-05-07 06:32:00,60.6,58.6,30.02,NNE,15,3.5,3.5,93,0.00,CLR,,0.00,WeatherDisplay:10.37,2013-05-07 10:32:00,
2013-05-07 06:37:00,60.6,58.6,30.02,NNE,23,3.5,3.5,93,0.00,CLR,,0.00,WeatherDisplay:10.37,2013-05-07 10:37:00,
2013-05-07 06:42:00,60.7,58.4,30.02,NNE,33,4.0,4.0,92,0.00,CLR,,0.00,WeatherDisplay:10.37,2013-05-07 10:42:00,
2013-05-07 06:47:00,60.8,58.5,30.02,NNW,345,2.3,2.3,92,0.00,CLR,,0.00,WeatherDisplay:10.37,2013-05-07 10:47:00,
2013-05-07 06:52:00,60.8,58.2,30.02,NNW,333,3.5,3.5,91,0.00,CLR,,0.00,WeatherDisplay:10.37,2013-05-07 10:52:00,
2013-05-07 06:57:00,60.8,58.2,30.02,North,4,2.3,2.3,91,0.00,CLR,,0.00,WeatherDisplay:10.37,2013-05-07 10:57:00,
2013-05-07 07:02:00,61.0,58.4,30.03,North,358,2.3,2.3,91,0.00,CLR,,0.00,WeatherDisplay:10.37,2013-05-07 11:02:00,
2013-05-07 07:07:00,61.2,58.6,30.03,NNE,19,3.5,3.5,91,0.00,CLR,,0.00,WeatherDisplay:10.37,2013-05-07 11:07:00,
2013-05-07 07:12:00,61.5,58.8,30.03,North,354,2.3,2.3,91,0.00,CLR,,0.00,WeatherDisplay:10.37,2013-05-07 11:12:00,
2013-05-07 07:18:00,61.9,58.9,30.03,NNE,23,3.5,3.5,90,0.00,CLR,,0.00,WeatherDisplay:10.37,2013-05-07 11:18:00,
2013-05-07 07:23:00,62.2,58.9,30.03,NNE,15,4.6,4.6,89,0.00,CLR,,0.00,WeatherDisplay:10.37,2013-05-07 11:23:00,
2013-05-07 07:28:00,62.6,59.3,30.03,NNE,33,2.3,2.3,89,0.00,CLR,,0.00,WeatherDisplay:10.37,2013-05-07 11:28:00,
2013-05-07 07:33:00,62.8,59.2,30.04,NE,44,4.6,4.6,88,0.00,CLR,,0.00,WeatherDisplay:10.37,2013-05-07 11:33:00,
2013-05-07 07:38:00,63.0,59.1,30.04,North,3,5.0,5.0,87,0.00,CLR,,0.00,WeatherDisplay:10.37,2013-05-07 11:38:00,
2013-05-07 07:43:00,63.5,59.6,30.04,NE,47,3.5,3.5,87,0.00,CLR,,0.00,WeatherDisplay:10.37,2013-05-07 11:43:00,
2013-05-07 07:48:00,63.8,59.9,30.04,NE,39,6.0,6.0,87,0.00,CLR,,0.00,WeatherDisplay:10.37,2013-05-07 11:48:00,
2013-05-07 07:53:00,64.0,59.7,30.05,ENE,59,4.6,4.6,86,0.00,CLR,,0.00,WeatherDisplay:10.37,2013-05-07 11:53:00,
2013-05-07 07:58:00,63.9,59.3,30.05,NE,43,4.6,4.6,85,0.00,CLR,,0.00,WeatherDisplay:10.37,2013-05-07 11:58:00,
2013-05-07 08:03:00,64.3,59.4,30.05,North,356,5.8,5.8,84,0.00,CLR,,0.00,WeatherDisplay:10.37,2013-05-07 12:03:00,
2013-05-07 08:08:00,64.7,59.8,30.05,North,359,3.5,3.5,84,0.00,CLR,,0.00,WeatherDisplay:10.37,2013-05-07 12:08:00,
2013-05-07 08:13:00,65.1,59.8,30.05,NE,49,4.6,4.6,83,0.00,CLR,,0.00,WeatherDisplay:10.37,2013-05-07 12:13:00,
2013-05-07 08:18:00,65.1,59.5,30.05,NNE,16,5.8,5.8,82,0.00,CLR,,0.00,WeatherDisplay:10.37,2013-05-07 12:18:00,
2013-05-07 08:24:00,65.2,59.6,30.05,NNE,15,4.6,4.6,82,0.00,CLR,,0.00,WeatherDisplay:10.37,2013-05-07 12:24:00,
2013-05-07 08:29:00,65.6,60.0,30.06,NNW,340,3.5,3.5,82,0.00,CLR,,0.00,WeatherDisplay:10.37,2013-05-07 12:29:00,
2013-05-07 08:34:00,66.3,60.3,30.06,NNE,19,4.0,4.0,81,0.00,CLR,,0.00,WeatherDisplay:10.37,2013-05-07 12:34:00,
2013-05-07 08:39:00,66.6,60.2,30.06,NNE,12,4.6,4.6,80,0.00,CLR,,0.00,WeatherDisplay:10.37,2013-05-07 12:39:00,
2013-05-07 08:44:00,66.6,60.2,30.06,North,359,4.6,4.6,80,0.00,CLR,,0.00,WeatherDisplay:10.37,2013-05-07 12:44:00,
2013-05-07 08:49:00,66.8,60.4,30.06,NNE,27,4.6,4.6,80,0.00,CLR,,0.00,WeatherDisplay:10.37,2013-05-07 12:49:00,
2013-05-07 08:54:00,67.0,60.6,30.06,NE,43,4.6,4.6,80,0.00,CLR,,0.00,WeatherDisplay:10.37,2013-05-07 12:54:00,
2013-05-07 08:59:00,67.5,61.1,30.06,NNE,18,3.5,3.5,80,0.00,CLR,,0.00,WeatherDisplay:10.37,2013-05-07 12:59:00,
2013-05-07 09:05:00,68.1,61.3,30.06,NNE,29,5.8,5.8,79,0.00,CLR,,0.00,WeatherDisplay:10.37,2013-05-07 13:05:00,
2013-05-07 09:10:00,68.2,61.4,30.06,ENE,64,3.5,3.5,79,0.00,CLR,,0.00,WeatherDisplay:10.37,2013-05-07 13:10:00,
2013-05-07 09:15:00,68.8,61.7,30.06,North,5,4.6,4.6,78,0.00,CLR,,0.00,WeatherDisplay:10.37,2013-05-07 13:15:00,
2013-05-07 09:20:00,69.2,61.3,30.07,NE,39,5.0,5.0,76,0.00,CLR,,0.00,WeatherDisplay:10.37,2013-05-07 13:20:00,
2013-05-07 09:25:00,69.7,61.8,30.07,North,358,4.6,4.6,76,0.00,CLR,,0.00,WeatherDisplay:10.37,2013-05-07 13:25:00,
2013-05-07 09:30:00,70.0,61.7,30.07,NNE,20,3.5,3.5,75,0.00,CLR,,0.00,WeatherDisplay:10.37,2013-05-07 13:30:00,
2013-05-07 09:35:00,70.6,62.3,30.07,NNE,33,3.5,3.5,75,0.00,CLR,,0.00,WeatherDisplay:10.37,2013-05-07 13:35:00,
2013-05-07 09:40:00,70.8,62.1,30.07,NE,51,3.5,3.5,74,0.00,CLR,,0.00,WeatherDisplay:10.37,2013-05-07 13:40:00,
2013-05-07 09:46:00,71.3,62.2,30.06,NE,40,4.6,4.6,73,0.00,CLR,,0.00,WeatherDisplay:10.37,2013-05-07 13:46:00,
2013-05-07 09:51:00,72.0,62.5,30.07,East,81,3.5,3.5,72,0.00,CLR,,0.00,WeatherDisplay:10.37,2013-05-07 13:51:00,
2013-05-07 09:56:00,72.0,62.9,30.07,ENE,63,3.5,3.5,73,0.00,CLR,,0.00,WeatherDisplay:10.37,2013-05-07 13:56:00,
2013-05-07 10:01:00,72.2,63.1,30.07,NNW,342,4.6,4.6,73,0.00,CLR,,0.00,WeatherDisplay:10.37,2013-05-07 14:01:00,
2013-05-07 10:06:00,72.7,63.5,30.07,NW,325,2.0,2.0,73,0.00,CLR,,0.00,WeatherDisplay:10.37,2013-05-07 14:06:00,
2013-05-07 10:11:00,73.8,63.4,30.07,NNW,335,1.2,1.2,70,0.00,CLR,,0.00,WeatherDisplay:10.37,2013-05-07 14:11:00,
2013-05-07 10:16:00,74.1,63.7,30.07,NNW,333,3.5,3.5,70,0.00,CLR,,0.00,WeatherDisplay:10.37,2013-05-07 14:16:00,
2013-05-07 10:22:00,74.7,63.9,30.07,SE,136,4.0,4.0,69,0.00,CLR,,0.00,WeatherDisplay:10.37,2013-05-07 14:22:00,
2013-05-07 10:27:00,75.5,64.2,30.07,ESE,114,3.5,3.5,68,0.00,CLR,,0.00,WeatherDisplay:10.37,2013-05-07 14:27:00,
2013-05-07 10:32:00,76.5,65.1,30.07,SE,131,2.3,2.3,68,0.00,CLR,,0.00,WeatherDisplay:10.37,2013-05-07 14:32:00,
2013-05-07 10:37:00,76.8,64.6,30.07,SSW,205,2.3,2.3,66,0.00,CLR,,0.00,WeatherDisplay:10.37,2013-05-07 14:37:00,
2013-05-07 10:42:00,77.7,65.0,30.07,SSE,166,3.5,3.5,65,0.00,CLR,,0.00,WeatherDisplay:10.37,2013-05-07 14:42:00,
2013-05-07 10:47:00,77.2,64.5,30.07,SSW,204,2.3,2.3,65,0.00,CLR,,0.00,WeatherDisplay:10.37,2013-05-07 14:47:00,
2013-05-07 10:52:00,76.7,64.5,30.07,NNE,13,1.2,1.2,66,0.00,CLR,,0.00,WeatherDisplay:10.37,2013-05-07 14:52:00,
2013-05-07 10:57:00,77.2,65.4,30.07,SE,145,5.8,5.8,67,0.00,CLR,,0.00,WeatherDisplay:10.37,2013-05-07 14:57:00,
2013-05-07 11:02:00,77.3,65.1,30.07,WSW,243,5.0,5.0,66,0.00,CLR,,0.00,WeatherDisplay:10.37,2013-05-07 15:02:00,
2013-05-07 11:08:00,77.6,64.9,30.07,SE,142,4.0,4.0,65,0.00,CLR,,0.00,WeatherDisplay:10.37,2013-05-07 15:08:00,
2013-05-07 11:13:00,77.7,65.0,30.08,SSE,167,4.6,4.6,65,0.00,CLR,,0.00,WeatherDisplay:10.37,2013-05-07 15:13:00,
2013-05-07 11:18:00,78.3,65.1,30.07,SE,140,4.6,4.6,64,0.00,CLR,,0.00,WeatherDisplay:10.37,2013-05-07 15:18:00,
2013-05-07 11:24:00,78.9,64.3,30.07,SW,233,6.9,6.9,61,0.00,CLR,,0.00,WeatherDisplay:10.37,2013-05-07 15:24:00,
2013-05-07 11:29:00,78.8,64.7,30.07,SW,215,4.6,4.6,62,0.00,CLR,,0.00,WeatherDisplay:10.37,2013-05-07 15:29:00,
2013-05-07 11:34:00,79.0,64.9,30.08,SSW,211,1.2,1.2,62,0.00,CLR,,0.00,WeatherDisplay:10.37,2013-05-07 15:34:00,
2013-05-07 11:39:00,79.9,65.2,30.08,SE,140,3.5,3.5,61,0.00,CLR,,0.00,WeatherDisplay:10.37,2013-05-07 15:39:00,
2013-05-07 11:44:00,80.0,64.9,30.08,SE,145,3.5,3.5,60,0.00,CLR,,0.00,WeatherDisplay:10.37,2013-05-07 15:44:00,
2013-05-07 11:49:00,79.5,65.8,30.08,SSE,153,3.5,3.5,63,0.00,CLR,,0.00,WeatherDisplay:10.37,2013-05-07 15:49:00,
2013-05-07 11:54:00,79.3,65.6,30.08,SSW,210,1.2,1.2,63,0.00,CLR,,0.00,WeatherDisplay:10.37,2013-05-07 15:54:00,
2013-05-07 11:59:00,79.5,64.4,30.07,SSW,204,4.6,4.6,60,0.00,CLR,,0.00,WeatherDisplay:10.37,2013-05-07 15:59:00,
2013-05-07 12:04:00,79.2,64.6,30.07,SW,229,5.8,5.8,61,0.00,CLR,,0.00,WeatherDisplay:10.37,2013-05-07 16:04:00,
2013-05-07 12:09:00,79.4,65.2,30.07,SE,124,4.0,4.0,62,0.00,CLR,,0.00,WeatherDisplay:10.37,2013-05-07 16:09:00,
2013-05-07 12:15:00,79.6,65.9,30.07,ESE,107,6.9,6.9,63,0.00,CLR,,0.00,WeatherDisplay:10.37,2013-05-07 16:15:00,
2013-05-07 12:20:00,79.7,65.5,30.07,WSW,246,3.5,3.5,62,0.00,CLR,,0.00,WeatherDisplay:10.37,2013-05-07 16:20:00,
2013-05-07 12:25:00,79.0,65.8,30.07,West,279,3.5,3.5,64,0.00,CLR,,0.00,WeatherDisplay:10.37,2013-05-07 16:25:00,
2013-05-07 12:30:00,79.3,65.1,30.07,WSW,243,2.3,2.3,62,0.00,CLR,,0.00,WeatherDisplay:10.37,2013-05-07 16:30:00,
2013-05-07 12:35:00,79.4,66.2,30.07,WSW,256,5.8,5.8,64,0.00,CLR,,0.00,WeatherDisplay:10.37,2013-05-07 16:35:00,
2013-05-07 12:41:00,79.2,66.0,30.07,South,181,4.6,4.6,64,0.00,CLR,,0.00,WeatherDisplay:10.37,2013-05-07 16:41:00,
2013-05-07 12:46:00,79.9,67.1,30.07,NNW,330,4.0,4.0,65,0.00,CLR,,0.00,WeatherDisplay:10.37,2013-05-07 16:46:00,
2013-05-07 12:51:00,79.1,65.0,30.07,SW,235,4.0,4.0,62,0.00,CLR,,0.00,WeatherDisplay:10.37,2013-05-07 16:51:00,
2013-05-07 12:56:00,79.3,65.1,30.06,SE,145,5.8,5.8,62,0.00,CLR,,0.00,WeatherDisplay:10.37,2013-05-07 16:56:00,
2013-05-07 13:01:00,79.7,67.3,30.06,NW,322,5.8,5.8,66,0.00,CLR,,0.00,WeatherDisplay:10.37,2013-05-07 17:01:00,
2013-05-07 13:06:00,79.8,65.2,30.06,NW,308,6.9,6.9,61,0.00,CLR,,0.00,WeatherDisplay:10.37,2013-05-07 17:06:00,
2013-05-07 13:11:00,79.9,65.7,30.06,SSE,167,4.6,4.6,62,0.00,CLR,,0.00,WeatherDisplay:10.37,2013-05-07 17:11:00,
2013-05-07 13:17:00,80.1,65.9,30.06,WSW,245,2.3,2.3,62,0.00,CLR,,0.00,WeatherDisplay:10.37,2013-05-07 17:17:00,
2013-05-07 13:22:00,80.6,66.4,30.06,SSE,162,2.3,2.3,62,0.00,CLR,,0.00,WeatherDisplay:10.37,2013-05-07 17:22:00,
2013-05-07 13:27:00,81.1,65.9,30.06,WSW,248,4.6,4.6,60,0.00,CLR,,0.00,WeatherDisplay:10.37,2013-05-07 17:27:00,
2013-05-07 13:32:00,80.3,65.6,30.06,WSW,253,6.9,6.9,61,0.00,CLR,,0.00,WeatherDisplay:10.37,2013-05-07 17:32:00,
2013-05-07 13:37:00,80.0,65.3,30.05,SW,235,4.0,4.0,61,0.00,CLR,,0.00,WeatherDisplay:10.37,2013-05-07 17:37:00,
2013-05-07 13:43:00,79.6,65.0,30.06,NW,316,3.5,3.5,61,0.00,CLR,,0.00,WeatherDisplay:10.37,2013-05-07 17:43:00,
2013-05-07 13:48:00,79.6,64.5,30.06,SW,218,5.8,5.8,60,0.00,CLR,,0.00,WeatherDisplay:10.37,2013-05-07 17:48:00,
2013-05-07 13:53:00,79.6,65.4,30.05,SSW,203,3.5,3.5,62,0.00,CLR,,0.00,WeatherDisplay:10.37,2013-05-07 17:53:00,
2013-05-07 13:58:00,80.8,65.6,30.05,WSW,240,5.8,5.8,60,0.00,CLR,,0.00,WeatherDisplay:10.37,2013-05-07 17:58:00,
2013-05-07 14:03:00,80.8,63.6,30.05,South,184,3.5,3.5,56,0.00,CLR,,0.00,WeatherDisplay:10.37,2013-05-07 18:03:00,
2013-05-07 14:08:00,80.8,65.1,30.05,NW,318,4.6,4.6,59,0.00,CLR,,0.00,WeatherDisplay:10.37,2013-05-07 18:08:00,
2013-05-07 14:13:00,81.0,65.3,30.04,NW,316,4.6,4.6,59,0.00,CLR,,0.00,WeatherDisplay:10.37,2013-05-07 18:13:00,
2013-05-07 14:18:00,80.5,64.4,30.04,NNW,328,5.0,5.0,58,0.00,CLR,,0.00,WeatherDisplay:10.37,2013-05-07 18:18:00,
2013-05-07 14:23:00,80.2,64.1,30.04,NNW,335,3.5,3.5,58,0.00,CLR,,0.00,WeatherDisplay:10.37,2013-05-07 18:23:00,
2013-05-07 14:28:00,80.1,64.0,30.04,ESE,104,6.9,6.9,58,0.00,CLR,,0.00,WeatherDisplay:10.37,2013-05-07 18:28:00,
2013-05-07 14:34:00,81.0,65.3,30.04,South,179,3.5,3.5,59,0.00,CLR,,0.00,WeatherDisplay:10.37,2013-05-07 18:34:00,
2013-05-07 14:39:00,81.2,64.5,30.04,SSE,158,4.6,4.6,57,0.00,CLR,,0.00,WeatherDisplay:10.37,2013-05-07 18:39:00,
2013-05-07 14:44:00,81.2,64.0,30.03,SE,132,3.5,3.5,56,0.00,CLR,,0.00,WeatherDisplay:10.37,2013-05-07 18:44:00,
2013-05-07 14:50:00,80.5,64.9,30.03,WNW,288,4.6,4.6,59,0.00,CLR,,0.00,WeatherDisplay:10.37,2013-05-07 18:50:00,
2013-05-07 14:55:00,80.4,64.8,30.03,SW,235,6.9,6.9,59,0.00,CLR,,0.00,WeatherDisplay:10.37,2013-05-07 18:55:00,
2013-05-07 15:00:00,80.0,65.3,30.03,South,170,8.1,8.1,61,0.00,CLR,,0.00,WeatherDisplay:10.37,2013-05-07 19:00:00,
2013-05-07 15:05:00,79.6,65.0,30.03,NNW,340,5.8,5.8,61,0.00,CLR,,0.00,WeatherDisplay:10.37,2013-05-07 19:05:00,
2013-05-07 15:10:00,79.6,65.4,30.03,WSW,240,3.5,3.5,62,0.00,CLR,,0.00,WeatherDisplay:10.37,2013-05-07 19:10:00,
2013-05-07 15:15:00,79.6,64.5,30.03,WNW,300,9.2,9.2,60,0.00,CLR,,0.00,WeatherDisplay:10.37,2013-05-07 19:15:00,
2013-05-07 15:20:00,79.4,66.2,30.03,WNW,294,8.1,8.1,64,0.00,CLR,,0.00,WeatherDisplay:10.37,2013-05-07 19:20:00,
2013-05-07 15:26:00,80.0,65.3,30.02,NW,315,4.0,4.0,61,0.00,CLR,,0.00,WeatherDisplay:10.37,2013-05-07 19:26:00,
2013-05-07 15:31:00,79.2,65.5,30.02,East,93,9.2,9.2,63,0.00,CLR,,0.00,WeatherDisplay:10.37,2013-05-07 19:31:00,
2013-05-07 15:36:00,79.0,65.3,30.02,NNW,328,8.1,8.1,63,0.00,CLR,,0.00,WeatherDisplay:10.37,2013-05-07 19:36:00,
2013-05-07 15:41:00,79.2,64.6,30.02,SE,124,4.6,4.6,61,0.00,CLR,,0.00,WeatherDisplay:10.37,2013-05-07 19:41:00,
2013-05-07 15:46:00,79.3,65.1,30.02,SSW,212,6.9,6.9,62,0.00,CLR,,0.00,WeatherDisplay:10.37,2013-05-07 19:46:00,
2013-05-07 15:51:00,79.1,64.0,30.02,SW,225,9.2,9.2,60,0.00,CLR,,0.00,WeatherDisplay:10.37,2013-05-07 19:51:00,
2013-05-07 15:56:00,79.1,65.9,30.02,East,94,3.5,3.5,64,0.00,CLR,,0.00,WeatherDisplay:10.37,2013-05-07 19:56:00,
2013-05-07 16:01:00,79.1,65.0,30.02,NW,310,3.5,3.5,62,0.00,CLR,,0.00,WeatherDisplay:10.37,2013-05-07 20:01:00,
2013-05-07 16:06:00,79.1,64.5,30.02,West,263,6.0,6.0,61,0.00,CLR,,0.00,WeatherDisplay:10.37,2013-05-07 20:06:00,
2013-05-07 16:11:00,79.1,64.5,30.02,SW,228,6.9,6.9,61,0.00,CLR,,0.00,WeatherDisplay:10.37,2013-05-07 20:11:00,
2013-05-07 16:16:00,79.7,65.1,30.02,WNW,294,3.5,3.5,61,0.00,CLR,,0.00,WeatherDisplay:10.37,2013-05-07 20:16:00,
2013-05-07 16:21:00,79.9,64.3,30.02,NW,322,6.9,6.9,59,0.00,CLR,,0.00,WeatherDisplay:10.37,2013-05-07 20:21:00,
2013-05-07 16:26:00,79.6,64.5,30.02,ESE,112,9.2,9.2,60,0.00,CLR,,0.00,WeatherDisplay:10.37,2013-05-07 20:26:00,
2013-05-07 16:32:00,79.6,64.0,30.02,East,80,10.4,10.4,59,0.00,CLR,,0.00,WeatherDisplay:10.37,2013-05-07 20:32:00,
2013-05-07 16:37:00,79.5,64.4,30.02,SW,226,4.6,4.6,60,0.00,CLR,,0.00,WeatherDisplay:10.37,2013-05-07 20:37:00,
2013-05-07 16:42:00,79.2,64.1,30.02,SW,217,5.8,5.8,60,0.00,CLR,,0.00,WeatherDisplay:10.37,2013-05-07 20:42:00,
2013-05-07 16:47:00,78.7,64.6,30.02,WNW,288,5.0,5.0,62,0.00,CLR,,0.00,WeatherDisplay:10.37,2013-05-07 20:47:00,
2013-05-07 16:52:00,78.5,64.4,30.02,NW,325,11.5,11.5,62,0.00,CLR,,0.00,WeatherDisplay:10.37,2013-05-07 20:52:00,
2013-05-07 16:57:00,77.8,64.2,30.02,NW,310,10.4,10.4,63,0.00,CLR,,0.00,WeatherDisplay:10.37,2013-05-07 20:57:00,
2013-05-07 17:02:00,77.7,63.6,30.02,West,276,5.8,5.8,62,0.00,CLR,,0.00,WeatherDisplay:10.37,2013-05-07 21:02:00,
2013-05-07 17:08:00,78.4,64.8,30.02,NNW,330,6.9,6.9,63,0.00,CLR,,0.00,WeatherDisplay:10.37,2013-05-07 21:08:00,
2013-05-07 17:13:00,78.3,64.2,30.02,NW,308,6.9,6.9,62,0.00,CLR,,0.00,WeatherDisplay:10.37,2013-05-07 21:13:00,
2013-05-07 17:18:00,78.1,64.0,30.02,NW,309,6.0,6.0,62,0.00,CLR,,0.00,WeatherDisplay:10.37,2013-05-07 21:18:00,
2013-05-07 17:23:00,78.1,64.0,30.02,North,6,4.6,4.6,62,0.00,CLR,,0.00,WeatherDisplay:10.37,2013-05-07 21:23:00,
2013-05-07 17:28:00,78.3,64.7,30.02,NW,308,5.8,5.8,63,0.00,CLR,,0.00,WeatherDisplay:10.37,2013-05-07 21:28:00,
2013-05-07 17:34:00,78.4,64.8,30.02,NW,312,3.5,3.5,63,0.00,CLR,,0.00,WeatherDisplay:10.37,2013-05-07 21:34:00,
2013-05-07 17:39:00,78.5,64.9,30.02,ENE,69,3.5,3.5,63,0.00,CLR,,0.00,WeatherDisplay:10.37,2013-05-07 21:39:00,
2013-05-07 17:44:00,78.7,64.6,30.02,South,169,5.8,5.8,62,0.00,CLR,,0.00,WeatherDisplay:10.37,2013-05-07 21:44:00,
2013-05-07 17:49:00,78.5,64.9,30.02,SSE,158,5.8,5.8,63,0.00,CLR,,0.00,WeatherDisplay:10.37,2013-05-07 21:49:00,
2013-05-07 17:54:00,78.0,63.9,30.02,WSW,240,4.6,4.6,62,0.00,CLR,,0.00,WeatherDisplay:10.37,2013-05-07 21:54:00,
2013-05-07 17:59:00,77.5,63.9,30.02,NW,308,6.0,6.0,63,0.00,CLR,,0.00,WeatherDisplay:10.37,2013-05-07 21:59:00,
2013-05-07 18:04:00,76.9,63.3,30.02,South,176,8.1,8.1,63,0.00,CLR,,0.00,WeatherDisplay:10.37,2013-05-07 22:04:00,
2013-05-07 18:09:00,77.1,64.4,30.02,West,281,4.6,4.6,65,0.00,CLR,,0.00,WeatherDisplay:10.37,2013-05-07 22:09:00,
2013-05-07 18:14:00,77.0,64.3,30.02,West,279,3.5,3.5,65,0.00,CLR,,0.00,WeatherDisplay:10.37,2013-05-07 22:14:00,
2013-05-07 18:19:00,77.0,63.9,30.02,NNW,344,7.0,7.0,64,0.00,CLR,,0.00,WeatherDisplay:10.37,2013-05-07 22:19:00,
2013-05-07 18:25:00,76.9,64.2,30.01,West,278,5.8,5.8,65,0.00,CLR,,0.00,WeatherDisplay:10.37,2013-05-07 22:25:00,
2013-05-07 18:30:00,76.7,64.5,30.02,SW,229,5.8,5.8,66,0.00,CLR,,0.00,WeatherDisplay:10.37,2013-05-07 22:30:00,
2013-05-07 18:35:00,76.6,64.4,30.02,NNW,342,2.3,2.3,66,0.00,CLR,,0.00,WeatherDisplay:10.37,2013-05-07 22:35:00,
2013-05-07 18:40:00,76.3,64.5,30.02,South,184,4.6,4.6,67,0.00,CLR,,0.00,WeatherDisplay:10.37,2013-05-07 22:40:00,
2013-05-07 18:45:00,75.6,64.3,30.02,West,276,8.1,8.1,68,0.00,CLR,,0.00,WeatherDisplay:10.37,2013-05-07 22:45:00,
2013-05-07 18:50:00,75.0,63.7,30.02,WNW,291,8.1,8.1,68,0.00,CLR,,0.00,WeatherDisplay:10.37,2013-05-07 22:50:00,
2013-05-07 18:55:00,74.6,63.3,30.02,NW,308,4.6,4.6,68,0.00,CLR,,0.00,WeatherDisplay:10.37,2013-05-07 22:55:00,
2013-05-07 19:00:00,74.3,63.5,30.02,NW,308,5.0,5.0,69,0.00,CLR,,0.00,WeatherDisplay:10.37,2013-05-07 23:00:00,
2013-05-07 19:05:00,73.9,63.5,30.02,WNW,291,5.8,5.8,70,0.00,CLR,,0.00,WeatherDisplay:10.37,2013-05-07 23:05:00,
2013-05-07 19:10:00,73.7,63.7,30.02,NW,307,4.6,4.6,71,0.00,CLR,,0.00,WeatherDisplay:10.37,2013-05-07 23:10:00,
2013-05-07 19:16:00,73.3,63.3,30.02,WNW,302,8.1,8.1,71,0.00,CLR,,0.00,WeatherDisplay:10.37,2013-05-07 23:16:00,
2013-05-07 19:21:00,73.1,63.5,30.02,NNW,330,4.6,4.6,72,0.00,CLR,,0.00,WeatherDisplay:10.37,2013-05-07 23:21:00,
2013-05-07 19:26:00,72.9,63.3,30.02,NW,319,4.6,4.6,72,0.00,CLR,,0.00,WeatherDisplay:10.37,2013-05-07 23:26:00,
2013-05-07 19:31:00,72.7,63.5,30.03,WNW,302,5.8,5.8,73,0.00,CLR,,0.00,WeatherDisplay:10.37,2013-05-07 23:31:00,
2013-05-07 19:36:00,72.6,63.4,30.03,NNW,333,3.5,3.5,73,0.00,CLR,,0.00,WeatherDisplay:10.37,2013-05-07 23:36:00,
2013-05-07 19:41:00,72.3,63.2,30.03,NW,305,5.8,5.8,73,0.00,CLR,,0.00,WeatherDisplay:10.37,2013-05-07 23:41:00,
2013-05-07 19:46:00,72.1,63.0,30.03,SW,235,4.0,4.0,73,0.00,CLR,,0.00,WeatherDisplay:10.37,2013-05-07 23:46:00,
2013-05-07 19:51:00,71.8,63.1,30.03,West,280,4.0,4.0,74,0.00,CLR,,0.00,WeatherDisplay:10.37,2013-05-07 23:51:00,
2013-05-07 19:56:00,71.6,62.9,30.03,WNW,300,4.6,4.6,74,0.00,CLR,,0.00,WeatherDisplay:10.37,2013-05-07 23:56:00,
2013-05-07 20:01:00,71.4,63.1,30.03,WNW,302,3.5,3.5,75,0.00,CLR,,0.00,WeatherDisplay:10.37,2013-05-08 00:01:00,
2013-05-07 20:06:00,71.2,62.9,30.03,NNW,342,4.6,4.6,75,0.00,CLR,,0.00,WeatherDisplay:10.37,2013-05-08 00:06:00,
2013-05-07 20:11:00,71.0,63.1,30.03,NNW,340,2.3,0.0,76,0.00,CLR,,0.00,WeatherDisplay:10.37,2013-05-08 00:11:00,
2013-05-07 20:16:00,70.7,62.8,30.03,SE,133,1.2,0.0,76,0.00,CLR,,0.00,WeatherDisplay:10.37,2013-05-08 00:16:00,
2013-05-07 20:21:00,70.5,62.9,30.04,WNW,300,2.3,2.3,77,0.00,CLR,,0.00,WeatherDisplay:10.37,2013-05-08 00:21:00,
2013-05-07 20:26:00,70.3,62.7,30.04,NW,324,1.2,1.2,77,0.00,CLR,,0.00,WeatherDisplay:10.37,2013-05-08 00:26:00,
2013-05-07 20:31:00,70.1,62.6,30.04,WNW,285,1.2,0.0,77,0.00,CLR,,0.00,WeatherDisplay:10.37,2013-05-08 00:31:00,
2013-05-07 20:36:00,69.9,62.4,30.04,NW,314,3.5,3.5,77,0.00,CLR,,0.00,WeatherDisplay:10.37,2013-05-08 00:36:00,
2013-05-07 20:41:00,69.8,62.6,30.04,WNW,292,1.2,0.0,78,0.00,CLR,,0.00,WeatherDisplay:10.37,2013-05-08 00:41:00,
2013-05-07 20:47:00,69.7,62.5,30.04,WNW,297,1.2,0.0,78,0.00,CLR,,0.00,WeatherDisplay:10.37,2013-05-08 00:47:00,
2013-05-07 20:52:00,69.5,62.3,30.05,ESE,115,1.2,1.2,78,0.00,CLR,,0.00,WeatherDisplay:10.37,2013-05-08 00:52:00,
2013-05-07 20:57:00,69.4,62.2,30.05,ENE,67,2.3,2.3,78,0.00,CLR,,0.00,WeatherDisplay:10.37,2013-05-08 00:57:00,
2013-05-07 21:02:00,69.3,62.1,30.05,WNW,300,2.3,2.3,78,0.00,CLR,,0.00,WeatherDisplay:10.37,2013-05-08 01:02:00,
2013-05-07 21:07:00,69.3,62.1,30.05,ENE,77,1.2,0.0,78,0.00,CLR,,0.00,WeatherDisplay:10.37,2013-05-08 01:07:00,
2013-05-07 21:12:00,69.2,62.4,30.05,WNW,284,1.2,0.0,79,0.00,CLR,,0.00,WeatherDisplay:10.37,2013-05-08 01:12:00,
2013-05-07 21:17:00,69.0,62.2,30.05,WNW,284,0.0,0.0,79,0.00,CLR,,0.00,WeatherDisplay:10.37,2013-05-08 01:17:00,
2013-05-07 21:22:00,68.8,62.0,30.05,WNW,284,0.0,0.0,79,0.00,CLR,,0.00,WeatherDisplay:10.37,2013-05-08 01:22:00,
2013-05-07 21:27:00,68.5,62.1,30.06,WNW,284,0.0,0.0,80,0.00,CLR,,0.00,WeatherDisplay:10.37,2013-05-08 01:27:00,
2013-05-07 21:32:00,68.2,62.1,30.06,WNW,285,0.0,0.0,81,0.00,CLR,,0.00,WeatherDisplay:10.37,2013-05-08 01:32:00,
2013-05-07 21:38:00,67.9,62.2,30.06,WNW,285,0.0,0.0,82,0.00,CLR,,0.00,WeatherDisplay:10.37,2013-05-08 01:38:00,
2013-05-07 21:43:00,67.4,61.7,30.06,WNW,285,0.0,0.0,82,0.00,CLR,,0.00,WeatherDisplay:10.37,2013-05-08 01:43:00,
2013-05-07 21:48:00,67.1,62.1,30.06,WNW,298,1.0,1.0,84,0.00,CLR,,0.00,WeatherDisplay:10.37,2013-05-08 01:48:00,
2013-05-07 21:53:00,67.2,62.2,30.06,WNW,298,0.0,0.0,84,0.00,CLR,,0.00,WeatherDisplay:10.37,2013-05-08 01:53:00,
2013-05-07 21:58:00,67.2,62.2,30.06,WNW,298,1.2,0.0,84,0.00,CLR,,0.00,WeatherDisplay:10.37,2013-05-08 01:58:00,
2013-05-07 22:03:00,67.1,62.1,30.07,WNW,298,0.0,0.0,84,0.00,CLR,,0.00,WeatherDisplay:10.37,2013-05-08 02:03:00,
2013-05-07 22:08:00,66.8,61.8,30.07,WNW,297,0.0,0.0,84,0.00,CLR,,0.00,WeatherDisplay:10.37,2013-05-08 02:08:00,
2013-05-07 22:13:00,66.5,61.8,30.07,WNW,297,0.0,0.0,85,0.00,CLR,,0.00,WeatherDisplay:10.37,2013-05-08 02:13:00,
2013-05-07 22:19:00,66.2,61.6,30.07,WNW,298,0.0,0.0,85,0.00,CLR,,0.00,WeatherDisplay:10.37,2013-05-08 02:19:00,
2013-05-07 22:24:00,66.0,61.7,30.07,WNW,298,0.0,0.0,86,0.00,CLR,,0.00,WeatherDisplay:10.37,2013-05-08 02:24:00,
2013-05-07 22:29:00,65.9,61.6,30.07,WNW,298,0.0,0.0,86,0.00,CLR,,0.00,WeatherDisplay:10.37,2013-05-08 02:29:00,
2013-05-07 22:35:00,65.8,61.8,30.07,WNW,296,0.0,0.0,87,0.00,CLR,,0.00,WeatherDisplay:10.37,2013-05-08 02:35:00,
2013-05-07 22:40:00,65.6,61.6,30.07,WNW,297,0.0,0.0,87,0.00,CLR,,0.00,WeatherDisplay:10.37,2013-05-08 02:40:00,
2013-05-07 22:45:00,65.6,61.9,30.08,WNW,297,0.0,0.0,88,0.00,CLR,,0.00,WeatherDisplay:10.37,2013-05-08 02:45:00,
2013-05-07 22:50:00,65.5,61.5,30.08,WNW,296,0.0,0.0,87,0.00,CLR,,0.00,WeatherDisplay:10.37,2013-05-08 02:50:00,
2013-05-07 22:55:00,65.4,61.8,30.08,WNW,296,0.0,0.1,88,0.00,CLR,,0.00,WeatherDisplay:10.37,2013-05-08 02:55:00,
2013-05-07 23:00:00,65.6,61.9,30.08,WNW,296,0.0,0.0,88,0.00,CLR,,0.00,WeatherDisplay:10.37,2013-05-08 03:00:00,
2013-05-07 23:05:00,65.5,61.9,30.08,WNW,297,0.0,0.0,88,0.00,CLR,,0.00,WeatherDisplay:10.37,2013-05-08 03:05:00,
2013-05-07 23:10:00,65.4,61.8,30.08,WNW,298,0.0,0.0,88,0.00,CLR,,0.00,WeatherDisplay:10.37,2013-05-08 03:10:00,
2013-05-07 23:16:00,65.3,62.0,30.08,WNW,285,1.2,1.2,89,0.00,CLR,,0.00,WeatherDisplay:10.37,2013-05-08 03:16:00,
2013-05-07 23:21:00,65.3,62.3,30.08,SSW,200,0.0,0.0,90,0.00,CLR,,0.00,WeatherDisplay:10.37,2013-05-08 03:21:00,
2013-05-07 23:26:00,65.1,62.1,30.08,SSW,200,0.0,0.0,90,0.00,CLR,,0.00,WeatherDisplay:10.37,2013-05-08 03:26:00,
2013-05-07 23:31:00,64.9,62.2,30.08,SSW,200,0.0,0.0,91,0.00,CLR,,0.00,WeatherDisplay:10.37,2013-05-08 03:31:00,
2013-05-07 23:36:00,64.7,62.0,30.08,SSW,200,0.0,0.0,91,0.00,CLR,,0.00,WeatherDisplay:10.37,2013-05-08 03:36:00,
2013-05-07 23:41:00,64.5,61.8,30.08,SSW,200,0.0,0.0,91,0.00,CLR,,0.00,WeatherDisplay:10.37,2013-05-08 03:41:00,
2013-05-07 23:46:00,64.3,61.6,30.08,SSW,200,0.0,0.0,91,0.00,CLR,,0.00,WeatherDisplay:10.37,2013-05-08 03:46:00,
2013-05-07 23:52:00,64.4,61.7,30.08,SSW,200,0.0,0.0,91,0.00,CLR,,0.00,WeatherDisplay:10.37,2013-05-08 03:52:00,
2013-05-07 23:57:00,64.6,61.9,30.08,SSW,200,0.0,0.0,91,0.00,CLR,,0.00,WeatherDisplay:10.37,2013-05-08 03:57:00,